createdAt,value
2023-02-11T00:01:48.302Z,64.82
2023-02-11T00:04:18.816Z,63.03
2023-02-11T00:06:47.878Z,66.60
2023-02-11T00:09:16.924Z,67.70
2023-02-11T00:11:45.984Z,65.60
2023-02-11T00:14:15.034Z,63.67
2023-02-11T00:16:44.187Z,55.90
2023-02-11T00:19:13.239Z,48.35
2023-02-11T00:21:43.687Z,51.72
2023-02-11T00:24:12.797Z,53.35
2023-02-11T00:26:41.870Z,56.80
2023-02-11T00:29:11.634Z,59.15
2023-02-11T00:31:42.874Z,54.80
2023-02-11T00:34:12.008Z,62.35
2023-02-11T00:36:42.971Z,59.38
2023-02-11T00:39:12.277Z,61.13
2023-02-11T00:41:41.354Z,61.75
2023-02-11T00:44:10.562Z,57.13
2023-02-11T00:46:39.642Z,61.70
2023-02-11T00:49:11.860Z,61.55
2023-02-11T00:51:41.015Z,63.92
2023-02-11T00:54:11.573Z,69.45
2023-02-11T00:56:41.384Z,64.47
2023-02-11T00:59:10.579Z,62.92
2023-02-11T01:01:40.037Z,56.85
2023-02-11T01:04:10.739Z,55.03
2023-02-11T01:06:39.817Z,59.67
2023-02-11T01:09:10.254Z,51.67
2023-02-11T01:11:39.380Z,54.58
2023-02-11T01:14:08.419Z,61.38
2023-02-11T01:16:37.576Z,54.92
2023-02-11T01:19:06.626Z,55.65
2023-02-11T01:21:35.753Z,66.30
2023-02-11T01:24:05.295Z,57.13
2023-02-11T01:26:35.834Z,63.80
2023-02-11T01:29:05.453Z,61.25
2023-02-11T01:31:34.653Z,54.75
2023-02-11T01:34:03.752Z,58.38
2023-02-11T01:36:32.824Z,56.22
2023-02-11T01:39:02.719Z,57.00
2023-02-11T01:41:31.928Z,52.85
2023-02-11T01:44:31.223Z,57.85
2023-02-11T01:47:00.362Z,58.03
2023-02-11T01:49:33.029Z,59.38
2023-02-11T01:52:07.058Z,58.55
2023-02-11T01:54:59.170Z,61.63
2023-02-11T01:57:33.393Z,56.78
2023-02-11T02:00:13.952Z,53.90
2023-02-11T02:02:51.631Z,58.67
2023-02-11T02:05:30.323Z,61.67
2023-02-11T02:08:09.367Z,57.15
2023-02-11T02:10:44.596Z,56.65
2023-02-11T02:13:14.484Z,65.10
2023-02-11T02:15:51.952Z,60.58
2023-02-11T02:18:37.552Z,50.60
2023-02-11T02:21:59.320Z,56.17
2023-02-11T02:25:05.351Z,60.42
2023-02-11T02:27:54.329Z,57.55
2023-02-11T02:31:06.504Z,69.18
2023-02-11T02:33:47.373Z,62.78
2023-02-11T02:36:24.276Z,65.03
2023-02-11T02:41:30.917Z,64.70
2023-02-11T02:44:00.331Z,66.97
2023-02-11T02:46:32.323Z,62.67
2023-02-11T02:49:03.032Z,66.07
2023-02-11T02:51:55.272Z,53.85
2023-02-11T02:54:53.023Z,57.60
2023-02-11T02:57:37.703Z,56.58
2023-02-11T03:00:23.577Z,56.45
2023-02-11T03:03:09.984Z,54.90
2023-02-11T03:05:50.576Z,39.58
2023-02-11T03:08:30.274Z,56.13
2023-02-11T03:11:00.659Z,52.35
2023-02-11T03:13:35.068Z,58.25
2023-02-11T03:16:14.944Z,63.83
2023-02-11T03:18:49.483Z,61.55
2023-02-11T03:21:21.368Z,52.55
2023-02-11T03:23:55.178Z,57.90
2023-02-11T03:26:29.666Z,60.00
2023-02-11T03:29:06.019Z,63.55
2023-02-11T03:31:43.093Z,49.03
2023-02-11T03:34:17.438Z,51.22
2023-02-11T03:36:56.016Z,52.67
2023-02-11T03:39:30.088Z,63.33
2023-02-11T03:42:02.642Z,51.92
2023-02-11T03:44:37.714Z,57.78
2023-02-11T03:47:08.616Z,57.30
2023-02-11T03:49:41.074Z,56.22
2023-02-11T03:52:12.916Z,59.15
2023-02-11T03:54:44.682Z,53.80
2023-02-11T03:57:13.801Z,53.50
2023-02-11T03:59:55.092Z,58.75
2023-02-11T04:02:28.462Z,58.25
2023-02-11T04:04:57.546Z,65.85
2023-02-11T04:07:28.819Z,65.25
2023-02-11T04:09:57.836Z,57.30
2023-02-11T04:12:27.109Z,57.65
2023-02-11T04:14:56.196Z,63.28
2023-02-11T04:17:25.689Z,54.78
2023-02-11T04:19:54.753Z,62.45
2023-02-11T04:22:23.835Z,58.35
2023-02-11T04:24:54.251Z,56.45
2023-02-11T04:27:23.662Z,54.92
2023-02-11T04:29:52.702Z,55.75
2023-02-11T04:32:21.859Z,56.58
2023-02-11T04:34:50.866Z,55.80
2023-02-11T04:37:19.944Z,57.83
2023-02-11T04:39:48.995Z,58.03
2023-02-11T04:42:20.071Z,54.92
2023-02-11T04:44:49.120Z,63.38
2023-02-11T04:47:18.215Z,58.58
2023-02-11T04:49:47.251Z,55.47
2023-02-11T04:52:16.352Z,56.83
2023-02-11T04:54:45.541Z,65.63
2023-02-11T04:57:14.630Z,57.00
2023-02-11T04:59:45.168Z,55.67
2023-02-11T05:02:14.303Z,51.22
2023-02-11T05:04:43.374Z,61.08
2023-02-11T05:07:12.426Z,54.40
2023-02-11T05:09:41.750Z,56.03
2023-02-11T05:12:11.271Z,49.05
2023-02-11T05:14:40.612Z,56.50
2023-02-11T05:17:11.090Z,57.55
2023-02-11T05:19:40.507Z,47.47
2023-02-11T05:22:09.720Z,59.97
2023-02-11T05:24:40.071Z,62.47
2023-02-11T05:27:09.175Z,56.92
2023-02-11T05:29:38.399Z,52.88
2023-02-11T05:32:09.133Z,55.40
2023-02-11T05:34:39.607Z,56.45
2023-02-11T05:37:08.664Z,57.80
2023-02-11T05:39:37.738Z,52.13
2023-02-11T05:42:07.201Z,53.08
2023-02-11T05:44:36.256Z,51.63
2023-02-11T05:47:05.703Z,54.97
2023-02-11T05:49:34.888Z,50.00
2023-02-11T05:52:05.922Z,56.83
2023-02-11T05:54:34.990Z,60.65
2023-02-11T05:57:04.193Z,62.30
2023-02-11T05:59:33.295Z,57.40
2023-02-11T06:02:02.318Z,50.50
2023-02-11T06:04:31.559Z,49.47
2023-02-11T06:07:00.678Z,53.00
2023-02-11T06:09:31.543Z,49.25
2023-02-11T06:12:00.710Z,54.05
2023-02-11T06:14:30.880Z,51.92
2023-02-11T06:16:59.990Z,47.25
2023-02-11T06:19:29.177Z,52.45
2023-02-11T06:21:58.842Z,49.88
2023-02-11T06:24:48.093Z,48.10
2023-02-11T06:27:19.023Z,54.03
2023-02-11T06:29:48.253Z,44.97
2023-02-11T06:32:39.374Z,48.38
2023-02-11T06:35:08.438Z,47.45
2023-02-11T06:37:40.173Z,46.42
2023-02-11T06:40:10.083Z,44.15
2023-02-11T06:42:40.633Z,48.50
2023-02-11T06:45:13.078Z,51.13
2023-02-11T06:47:42.970Z,49.63
2023-02-11T06:50:15.194Z,47.30
2023-02-11T06:52:44.245Z,50.22
2023-02-11T06:55:13.493Z,49.47
2023-02-11T06:57:43.941Z,51.33
2023-02-11T07:00:15.293Z,52.50
2023-02-11T07:02:44.592Z,54.42
2023-02-11T07:05:13.719Z,52.28
2023-02-11T07:07:42.730Z,54.70
2023-02-11T07:10:11.841Z,50.65
2023-02-11T07:12:41.297Z,47.42
2023-02-11T07:15:12.071Z,49.72
2023-02-11T07:17:41.162Z,44.33
2023-02-11T07:20:12.479Z,42.78
2023-02-11T07:22:41.620Z,49.70
2023-02-11T07:25:10.993Z,40.72
2023-02-11T07:27:40.142Z,40.50
2023-02-11T07:30:13.142Z,40.30
2023-02-11T07:32:42.278Z,38.28
2023-02-11T07:35:11.317Z,38.50
2023-02-11T07:37:41.605Z,41.65
2023-02-11T07:40:11.926Z,43.63
2023-02-11T07:42:41.752Z,39.00
2023-02-11T07:45:12.762Z,38.08
2023-02-11T07:47:42.763Z,36.53
2023-02-11T07:50:12.053Z,36.85
2023-02-11T07:52:41.071Z,38.78
2023-02-11T07:55:10.417Z,36.22
2023-02-11T07:57:39.464Z,39.75
2023-02-11T08:00:09.612Z,35.40
2023-02-11T08:02:42.744Z,36.95
2023-02-11T08:05:12.225Z,36.03
2023-02-11T08:07:41.337Z,40.08
2023-02-11T08:10:10.836Z,40.38
2023-02-11T08:12:39.857Z,33.92
2023-02-11T08:15:10.278Z,36.78
2023-02-11T08:17:39.934Z,34.15
2023-02-11T08:20:12.093Z,37.88
2023-02-11T08:22:41.343Z,36.15
2023-02-11T08:25:10.551Z,34.10
2023-02-11T08:27:39.650Z,35.58
2023-02-11T08:30:10.395Z,33.97
2023-02-11T08:32:39.542Z,37.83
2023-02-11T08:35:12.515Z,36.58
2023-02-11T08:37:41.733Z,37.63
2023-02-11T08:40:11.674Z,33.83
2023-02-11T08:42:40.878Z,34.70
2023-02-11T08:45:10.860Z,46.75
2023-02-11T08:47:40.157Z,36.17
2023-02-11T08:50:11.294Z,37.70
2023-02-11T08:52:40.550Z,30.45
2023-02-11T08:55:09.914Z,30.52
2023-02-11T08:57:40.047Z,29.02
2023-02-11T09:00:11.735Z,33.42
2023-02-11T09:02:41.022Z,30.65
2023-02-11T09:05:12.117Z,29.00
2023-02-11T09:07:41.490Z,35.65
2023-02-11T09:10:11.042Z,26.70
2023-02-11T09:12:40.106Z,24.30
2023-02-11T09:15:10.692Z,24.85
2023-02-11T09:17:40.829Z,26.55
2023-02-11T09:20:12.081Z,32.08
2023-02-11T09:22:41.357Z,24.70
2023-02-11T09:25:11.644Z,26.58
2023-02-11T09:27:41.318Z,24.15
2023-02-11T09:30:12.298Z,25.33
2023-02-11T09:32:41.448Z,28.40
2023-02-11T09:35:11.908Z,28.33
2023-02-11T09:37:41.090Z,25.70
2023-02-11T09:40:12.025Z,25.60
2023-02-11T09:42:47.532Z,26.80
2023-02-11T09:45:20.763Z,26.77
2023-02-11T09:47:56.933Z,24.45
2023-02-11T09:50:35.360Z,24.73
2023-02-11T09:53:11.155Z,26.95
2023-02-11T09:55:43.505Z,28.23
2023-02-11T09:58:16.543Z,27.35
2023-02-11T10:00:56.444Z,36.50
2023-02-11T10:03:48.381Z,25.45
2023-02-11T10:06:43.307Z,24.67
2023-02-11T10:09:30.438Z,25.48
2023-02-11T10:12:18.332Z,20.75
2023-02-11T10:17:40.591Z,28.23
2023-02-11T10:20:33.495Z,26.27
2023-02-11T10:23:15.957Z,33.15
2023-02-11T10:25:48.253Z,38.85
2023-02-11T10:28:20.476Z,26.42
2023-02-11T10:31:00.347Z,27.77
2023-02-11T10:33:37.775Z,22.45
2023-02-11T10:38:39.851Z,26.50
2023-02-11T10:41:14.690Z,22.52
2023-02-11T10:43:46.312Z,23.48
2023-02-11T10:46:27.233Z,22.73
2023-02-11T10:48:56.539Z,22.13
2023-02-11T10:51:28.446Z,23.83
2023-02-11T10:54:21.432Z,26.48
2023-02-11T10:56:59.907Z,24.40
2023-02-11T10:59:32.880Z,20.73
2023-02-11T11:02:06.143Z,23.90
2023-02-11T11:04:45.686Z,23.20
2023-02-11T11:07:21.444Z,21.20
2023-02-11T11:09:56.734Z,20.80
2023-02-11T11:12:30.306Z,18.63
2023-02-11T11:15:02.321Z,22.23
2023-02-11T11:17:31.800Z,17.48
2023-02-11T11:20:35.496Z,19.52
2023-02-11T11:23:22.741Z,22.00
2023-02-11T11:26:05.702Z,20.00
2023-02-11T11:28:41.207Z,20.17
2023-02-11T11:31:18.206Z,22.42
2023-02-11T11:33:52.407Z,20.27
2023-02-11T11:36:25.089Z,17.15
2023-02-11T11:38:59.916Z,21.95
2023-02-11T11:41:32.226Z,21.27
2023-02-11T11:44:18.585Z,23.55
2023-02-11T11:46:50.591Z,18.63
2023-02-11T11:49:29.298Z,21.95
2023-02-11T11:52:17.390Z,22.20
2023-02-11T11:54:56.452Z,20.10
2023-02-11T11:57:30.698Z,18.85
2023-02-11T12:00:00.885Z,18.50
2023-02-11T12:03:11.849Z,20.60
2023-02-11T12:05:51.371Z,22.95
2023-02-11T12:08:30.684Z,20.17
2023-02-11T12:11:12.031Z,25.67
2023-02-11T12:14:06.079Z,21.23
2023-02-11T12:16:54.147Z,19.35
2023-02-11T12:20:05.933Z,14.98
2023-02-11T12:22:48.461Z,16.88
2023-02-11T12:25:31.274Z,18.20
2023-02-11T12:28:21.766Z,16.67
2023-02-11T12:31:14.161Z,18.67
2023-02-11T12:34:19.760Z,16.23
2023-02-11T12:37:05.141Z,15.15
2023-02-11T12:39:45.106Z,14.70
2023-02-11T12:42:51.820Z,15.63
2023-02-11T12:45:33.724Z,18.92
2023-02-11T12:48:23.138Z,18.63
2023-02-11T12:51:02.102Z,13.10
2023-02-11T12:54:02.347Z,13.68
2023-02-11T12:56:40.602Z,14.93
2023-02-11T12:59:21.011Z,14.32
2023-02-11T13:01:53.110Z,13.57
2023-02-11T13:04:38.924Z,12.73
2023-02-11T13:07:20.146Z,13.90
2023-02-11T13:09:56.200Z,16.40
2023-02-11T13:12:43.935Z,13.57
2023-02-11T13:15:16.951Z,17.85
2023-02-11T13:17:58.728Z,11.93
2023-02-11T13:20:47.020Z,12.02
2023-02-11T13:23:30.553Z,13.70
2023-02-11T13:26:09.643Z,13.23
2023-02-11T13:28:50.210Z,16.42
2023-02-11T13:31:20.620Z,12.65
2023-02-11T13:33:50.654Z,15.80
2023-02-11T13:36:24.875Z,15.52
2023-02-11T13:39:03.744Z,12.95
2023-02-11T13:41:40.411Z,13.25
2023-02-11T13:44:28.741Z,14.67
2023-02-11T13:47:02.291Z,15.77
2023-02-11T13:49:40.746Z,13.98
2023-02-11T13:52:26.881Z,15.55
2023-02-11T13:55:00.269Z,13.65
2023-02-11T13:57:37.610Z,14.38
2023-02-11T14:00:50.369Z,16.60
2023-02-11T14:03:50.728Z,13.07
2023-02-11T14:06:44.812Z,14.45
2023-02-11T14:09:41.390Z,15.82
2023-02-11T14:12:37.481Z,14.10
2023-02-11T14:15:42.426Z,15.05
2023-02-11T14:18:58.384Z,19.08
2023-02-11T14:21:36.909Z,14.60
2023-02-11T14:24:53.779Z,14.40
2023-02-11T14:27:38.119Z,14.20
2023-02-11T14:30:54.921Z,18.27
2023-02-11T14:34:07.901Z,14.80
2023-02-11T14:37:00.036Z,19.42
2023-02-11T14:39:49.544Z,14.95
2023-02-11T14:42:25.513Z,12.90
2023-02-11T14:44:58.892Z,20.00
2023-02-11T14:47:42.798Z,15.73
2023-02-11T14:50:28.197Z,18.33
2023-02-11T14:53:00.069Z,16.95
2023-02-11T14:55:33.396Z,19.08
2023-02-11T14:58:26.278Z,13.88
2023-02-11T15:00:58.896Z,19.02
2023-02-11T15:03:37.146Z,18.20
2023-02-11T15:06:15.440Z,14.30
2023-02-11T15:08:48.641Z,18.05
2023-02-11T15:11:21.356Z,14.63
2023-02-11T15:13:55.088Z,18.52
2023-02-11T15:16:28.356Z,15.05
2023-02-11T15:19:03.003Z,19.52
2023-02-11T15:21:35.755Z,19.40
2023-02-11T15:24:21.605Z,19.27
2023-02-11T15:27:01.610Z,18.23
2023-02-11T15:29:38.999Z,16.45
2023-02-11T15:32:15.334Z,20.58
2023-02-11T15:34:45.126Z,15.33
2023-02-11T15:37:20.762Z,17.45
2023-02-11T15:39:50.246Z,17.20
2023-02-11T15:42:23.242Z,18.75
2023-02-11T15:45:23.923Z,16.48
2023-02-11T15:47:55.927Z,18.98
2023-02-11T15:50:27.566Z,17.85
2023-02-11T15:52:59.399Z,18.52
2023-02-11T15:55:31.018Z,18.95
2023-02-11T15:58:02.785Z,18.75
2023-02-11T16:00:37.977Z,21.48
2023-02-11T16:03:07.151Z,22.40
2023-02-11T16:05:40.895Z,21.40
2023-02-11T16:08:24.599Z,19.25
2023-02-11T16:10:59.873Z,19.88
2023-02-11T16:13:30.740Z,17.77
2023-02-11T16:16:04.818Z,18.35
2023-02-11T16:18:39.843Z,15.95
2023-02-11T16:21:17.300Z,23.98
2023-02-11T16:23:54.264Z,22.27
2023-02-11T16:26:31.312Z,19.52
2023-02-11T16:29:16.563Z,22.05
2023-02-11T16:31:50.429Z,20.45
2023-02-11T16:34:22.863Z,22.45
2023-02-11T16:36:53.240Z,22.75
2023-02-11T16:39:23.006Z,18.52
2023-02-11T16:41:53.660Z,19.55
2023-02-11T16:44:23.514Z,23.25
2023-02-11T16:46:55.668Z,19.38
2023-02-11T16:49:28.426Z,18.88
2023-02-11T16:52:02.274Z,20.65
2023-02-11T16:54:31.691Z,17.10
2023-02-11T16:57:00.790Z,17.83
2023-02-11T16:59:29.833Z,22.73
2023-02-11T17:02:00.308Z,26.48
2023-02-11T17:04:33.724Z,27.92
2023-02-11T17:07:02.927Z,22.08
2023-02-11T17:09:31.954Z,24.15
2023-02-11T17:12:01.516Z,24.83
2023-02-11T17:14:30.702Z,21.10
2023-02-11T17:17:01.773Z,33.28
2023-02-11T17:19:30.860Z,58.30
2023-02-11T17:22:00.024Z,47.55
2023-02-11T17:24:30.305Z,40.70
2023-02-11T17:27:00.079Z,33.50
2023-02-11T17:29:29.676Z,29.83
2023-02-11T17:32:00.357Z,21.48
2023-02-11T17:34:30.291Z,24.60
2023-02-11T17:37:00.266Z,25.17
2023-02-11T17:39:29.471Z,20.30
2023-02-11T17:41:58.454Z,28.70
2023-02-11T17:44:27.578Z,26.55
2023-02-11T17:46:56.632Z,24.27
2023-02-11T17:49:27.664Z,25.60
2023-02-11T17:51:56.830Z,32.28
2023-02-11T17:54:26.067Z,26.05
2023-02-11T17:56:58.132Z,31.65
2023-02-11T17:59:31.712Z,23.33
2023-02-11T18:02:00.722Z,33.85
2023-02-11T18:04:31.809Z,31.27
2023-02-11T18:07:00.941Z,27.10
2023-02-11T18:09:30.024Z,20.63
2023-02-11T18:11:59.044Z,25.63
2023-02-11T18:14:28.176Z,23.17
2023-02-11T18:16:57.264Z,21.25
2023-02-11T18:19:26.563Z,29.42
2023-02-11T18:21:58.621Z,26.90
2023-02-11T18:24:29.644Z,29.08
2023-02-11T18:26:58.807Z,26.77
2023-02-11T18:29:28.066Z,24.13
2023-02-11T18:31:57.932Z,27.92
2023-02-11T18:34:27.650Z,22.83
2023-02-11T18:36:58.098Z,24.35
2023-02-11T18:39:27.187Z,21.08
2023-02-11T18:41:58.953Z,19.10
2023-02-11T18:44:28.612Z,22.58
2023-02-11T18:46:57.824Z,23.30
2023-02-11T18:49:26.860Z,23.38
2023-02-11T18:51:58.749Z,28.42
2023-02-11T18:54:28.211Z,21.40
2023-02-11T18:56:57.242Z,26.73
2023-02-11T18:59:26.709Z,20.77
2023-02-11T19:01:55.747Z,25.80
2023-02-11T19:04:24.888Z,25.13
2023-02-11T19:06:53.990Z,26.02
2023-02-11T19:09:24.567Z,35.90
2023-02-11T19:11:54.417Z,32.30
2023-02-11T19:14:25.878Z,30.40
2023-02-11T19:16:58.683Z,29.88
2023-02-11T19:19:31.302Z,35.60
2023-02-11T19:22:10.293Z,31.80
2023-02-11T19:24:43.670Z,30.50
2023-02-11T19:27:13.387Z,29.15
2023-02-11T19:29:43.142Z,35.17
2023-02-11T19:32:12.485Z,30.45
2023-02-11T19:34:42.334Z,32.40
2023-02-11T19:37:13.150Z,28.95
2023-02-11T19:39:45.116Z,42.97
2023-02-11T19:42:14.915Z,29.95
2023-02-11T19:44:44.320Z,26.20
2023-02-11T19:47:14.039Z,33.60
2023-02-11T19:49:44.548Z,31.27
2023-02-11T19:52:14.760Z,29.70
2023-02-11T19:54:47.899Z,32.90
2023-02-11T19:57:17.373Z,27.75
2023-02-11T19:59:50.692Z,25.15
2023-02-11T20:02:20.290Z,30.85
2023-02-11T20:04:49.833Z,30.30
2023-02-11T20:07:20.216Z,39.83
2023-02-11T20:09:53.778Z,47.35
2023-02-11T20:12:24.095Z,43.78
2023-02-11T20:14:53.465Z,55.53
2023-02-11T20:17:22.794Z,67.22
2023-02-11T20:19:52.225Z,73.80
2023-02-11T20:22:22.514Z,56.97
2023-02-11T20:24:56.584Z,49.42
2023-02-11T20:27:29.317Z,42.30
2023-02-11T20:29:58.836Z,40.63
2023-02-11T20:32:30.611Z,30.08
2023-02-11T20:35:02.651Z,33.97
2023-02-11T20:37:35.285Z,36.22
2023-02-11T20:40:07.840Z,29.30
2023-02-11T20:42:37.824Z,31.58
2023-02-11T20:45:08.439Z,31.13
2023-02-11T20:47:40.296Z,38.67
2023-02-11T20:50:11.129Z,34.95
2023-02-11T20:52:41.593Z,35.67
2023-02-11T20:55:12.439Z,33.40
2023-02-11T20:57:43.554Z,28.65
2023-02-11T21:00:14.556Z,35.45
2023-02-11T21:02:44.111Z,30.83
2023-02-11T21:05:14.039Z,28.42
2023-02-11T21:07:43.381Z,31.60
2023-02-11T21:10:14.377Z,30.10
2023-02-11T21:12:43.425Z,38.53
2023-02-11T21:15:13.394Z,28.25
2023-02-11T21:17:42.746Z,31.55
2023-02-11T21:20:13.090Z,32.45
2023-02-11T21:22:42.130Z,32.22
2023-02-11T21:25:11.794Z,36.33
2023-02-11T21:27:44.942Z,34.38
2023-02-11T21:30:15.072Z,40.20
2023-02-11T21:32:44.179Z,37.80
2023-02-11T21:35:13.255Z,31.52
2023-02-11T21:37:42.465Z,41.60
2023-02-11T21:40:14.935Z,38.60
2023-02-11T21:42:45.382Z,32.97
2023-02-11T21:45:14.477Z,40.55
2023-02-11T21:47:43.543Z,41.22
2023-02-11T21:50:13.060Z,35.58
2023-02-11T21:52:42.197Z,37.65
2023-02-11T21:55:11.877Z,38.28
2023-02-11T21:57:40.966Z,37.30
2023-02-11T22:00:13.945Z,48.97
2023-02-11T22:02:43.511Z,32.50
2023-02-11T22:05:12.547Z,45.55
2023-02-11T22:07:41.651Z,41.08
2023-02-11T22:10:11.613Z,34.90
2023-02-11T22:12:40.971Z,38.40
2023-02-11T22:15:12.342Z,42.75
2023-02-11T22:17:41.471Z,34.03
2023-02-11T22:20:11.811Z,40.08
2023-02-11T22:22:40.926Z,42.05
2023-02-11T22:25:10.204Z,37.00
2023-02-11T22:27:39.319Z,34.40
2023-02-11T22:30:12.071Z,35.65
2023-02-11T22:32:42.614Z,38.92
2023-02-11T22:35:11.740Z,35.28
2023-02-11T22:37:40.805Z,41.17
2023-02-11T22:40:11.101Z,40.05
2023-02-11T22:42:40.177Z,38.00
2023-02-11T22:45:11.628Z,38.70
2023-02-11T22:47:40.720Z,30.80
2023-02-11T22:50:10.467Z,35.17
2023-02-11T22:52:39.488Z,43.80
2023-02-11T22:55:09.191Z,36.05
2023-02-11T22:57:38.195Z,31.45
2023-02-11T23:00:12.757Z,34.72
2023-02-11T23:02:41.821Z,34.95
2023-02-11T23:05:10.912Z,36.10
2023-02-11T23:07:39.932Z,37.72
2023-02-11T23:10:11.235Z,37.80
2023-02-11T23:12:40.305Z,45.13
2023-02-11T23:15:10.032Z,39.67
2023-02-11T23:17:40.491Z,40.10
2023-02-11T23:20:10.797Z,44.65
2023-02-11T23:22:40.208Z,37.22
2023-02-11T23:25:09.586Z,46.17
2023-02-11T23:27:38.678Z,42.33
2023-02-11T23:30:10.051Z,38.65
2023-02-11T23:32:41.166Z,39.90
2023-02-11T23:35:10.283Z,44.22
2023-02-11T23:37:39.356Z,41.45
2023-02-11T23:40:10.137Z,40.80
2023-02-11T23:42:39.205Z,43.53
2023-02-11T23:45:09.572Z,38.53
2023-02-11T23:47:41.641Z,37.50
2023-02-11T23:50:12.750Z,39.17
2023-02-11T23:52:41.867Z,38.80
2023-02-11T23:55:11.974Z,42.10
2023-02-11T23:57:41.055Z,36.65
